createdAt,value
2022-10-17T00:00:35.898Z,99.99
2022-10-17T00:01:35.965Z,99.99
2022-10-17T00:02:35.869Z,99.99
2022-10-17T00:03:35.870Z,99.99
2022-10-17T00:04:35.871Z,99.99
2022-10-17T00:05:35.868Z,99.99
2022-10-17T00:06:35.867Z,99.99
2022-10-17T00:07:35.866Z,99.99
2022-10-17T00:08:35.868Z,99.99
2022-10-17T00:09:35.869Z,99.99
2022-10-17T00:10:35.867Z,99.99
2022-10-17T00:11:35.868Z,99.99
2022-10-17T00:12:35.867Z,99.99
2022-10-17T00:13:35.878Z,99.99
2022-10-17T00:14:35.868Z,99.99
2022-10-17T00:15:35.863Z,99.99
2022-10-17T00:16:35.887Z,99.99
2022-10-17T00:17:35.871Z,99.99
2022-10-17T00:18:35.869Z,99.99
2022-10-17T00:19:35.871Z,99.99
2022-10-17T00:20:35.878Z,99.99
2022-10-17T00:21:35.862Z,99.99
2022-10-17T00:23:35.866Z,99.99
2022-10-17T00:24:35.860Z,99.99
2022-10-17T00:25:35.861Z,99.99
2022-10-17T00:26:35.862Z,99.99
2022-10-17T00:27:35.863Z,99.99
2022-10-17T00:28:36.031Z,99.99
2022-10-17T00:29:35.861Z,99.99
2022-10-17T00:30:35.857Z,99.99
2022-10-17T00:31:35.868Z,99.99
2022-10-17T00:32:35.887Z,99.99
2022-10-17T00:33:35.859Z,99.99
2022-10-17T00:34:35.939Z,99.99
2022-10-17T00:35:35.866Z,99.99
2022-10-17T00:36:35.863Z,99.99
2022-10-17T00:37:35.863Z,99.99
2022-10-17T00:38:35.857Z,99.99
2022-10-17T00:39:35.907Z,99.99
2022-10-17T00:40:35.864Z,99.99
2022-10-17T00:41:35.861Z,99.99
2022-10-17T00:42:35.859Z,99.99
2022-10-17T00:43:35.862Z,99.99
2022-10-17T00:44:35.860Z,99.99
2022-10-17T00:45:35.863Z,99.99
2022-10-17T00:46:35.862Z,99.99
2022-10-17T00:47:35.861Z,99.99
2022-10-17T00:48:35.876Z,99.99
2022-10-17T00:49:35.860Z,99.99
2022-10-17T00:50:35.856Z,99.99
2022-10-17T00:51:35.858Z,99.99
2022-10-17T00:52:35.855Z,99.99
2022-10-17T00:53:35.860Z,99.99
2022-10-17T00:54:35.898Z,99.99
2022-10-17T00:55:35.860Z,99.99
2022-10-17T00:56:35.855Z,99.99
2022-10-17T00:57:35.855Z,99.99
2022-10-17T00:58:35.859Z,99.99
2022-10-17T00:59:35.863Z,99.99
2022-10-17T01:00:35.856Z,99.99
2022-10-17T01:01:35.876Z,99.99
2022-10-17T01:02:35.858Z,99.99
2022-10-17T01:03:35.856Z,99.99
2022-10-17T01:04:35.880Z,99.99
2022-10-17T01:05:35.851Z,99.99
2022-10-17T01:06:35.853Z,99.99
2022-10-17T01:07:37.275Z,99.99
2022-10-17T01:08:35.858Z,99.99
2022-10-17T01:09:35.854Z,99.99
2022-10-17T01:10:35.857Z,99.99
2022-10-17T01:11:35.856Z,99.99
2022-10-17T01:12:35.852Z,99.99
2022-10-17T01:13:35.853Z,99.99
2022-10-17T01:14:35.851Z,99.99
2022-10-17T01:15:35.857Z,99.99
2022-10-17T01:16:35.853Z,99.99
2022-10-17T01:17:35.850Z,99.99
2022-10-17T01:18:35.849Z,99.99
2022-10-17T01:19:35.853Z,99.99
2022-10-17T01:20:35.869Z,99.99
2022-10-17T01:21:35.853Z,99.99
2022-10-17T01:22:35.850Z,99.99
2022-10-17T01:23:35.849Z,99.99
2022-10-17T01:24:35.850Z,99.99
2022-10-17T01:25:35.845Z,99.99
2022-10-17T01:26:35.853Z,99.99
2022-10-17T01:27:35.848Z,99.99
2022-10-17T01:28:35.998Z,99.99
2022-10-17T01:29:35.849Z,99.99
2022-10-17T01:30:35.846Z,99.99
2022-10-17T01:31:35.847Z,99.99
2022-10-17T01:32:35.854Z,99.99
2022-10-17T01:33:35.847Z,99.99
2022-10-17T01:34:35.850Z,99.99
2022-10-17T01:35:35.843Z,99.99
2022-10-17T01:36:35.905Z,99.99
2022-10-17T01:37:35.847Z,99.99
2022-10-17T01:38:35.846Z,99.99
2022-10-17T01:39:38.319Z,99.99
2022-10-17T01:40:35.847Z,99.99
2022-10-17T01:41:35.845Z,99.99
2022-10-17T01:42:35.849Z,99.99
2022-10-17T01:43:35.842Z,99.99
2022-10-17T01:44:35.845Z,99.99
2022-10-17T01:45:35.846Z,99.99
2022-10-17T01:46:35.845Z,99.99
2022-10-17T01:47:35.845Z,99.99
2022-10-17T01:48:35.844Z,99.99
2022-10-17T01:49:35.843Z,99.99
2022-10-17T01:51:35.842Z,99.99
2022-10-17T01:52:35.875Z,99.99
2022-10-17T01:53:35.842Z,99.99
2022-10-17T01:54:35.842Z,99.99
2022-10-17T01:55:35.843Z,99.99
2022-10-17T01:56:35.847Z,99.99
2022-10-17T01:57:35.847Z,99.99
2022-10-17T01:58:35.842Z,99.99
2022-10-17T01:59:35.839Z,99.99
2022-10-17T02:00:35.844Z,99.99
2022-10-17T02:01:35.889Z,99.99
2022-10-17T02:02:35.841Z,99.99
2022-10-17T02:03:35.843Z,99.99
2022-10-17T02:04:35.838Z,99.99
2022-10-17T02:05:35.844Z,99.99
2022-10-17T02:06:35.836Z,99.99
2022-10-17T02:07:35.838Z,99.99
2022-10-17T02:08:35.863Z,99.99
2022-10-17T02:09:35.835Z,99.99
2022-10-17T02:10:35.838Z,99.99
2022-10-17T02:11:35.836Z,99.99
2022-10-17T02:12:35.837Z,99.99
2022-10-17T02:13:35.841Z,99.99
2022-10-17T02:14:35.845Z,99.99
2022-10-17T02:15:35.837Z,99.99
2022-10-17T02:16:35.832Z,99.99
2022-10-17T02:17:35.836Z,99.99
2022-10-17T02:18:35.833Z,99.99
2022-10-17T02:19:35.841Z,99.99
2022-10-17T02:20:35.832Z,99.99
2022-10-17T02:21:35.839Z,99.99
2022-10-17T02:22:35.833Z,99.99
2022-10-17T02:23:35.836Z,99.99
2022-10-17T02:24:35.853Z,99.99
2022-10-17T02:25:35.833Z,99.99
2022-10-17T02:26:35.830Z,99.99
2022-10-17T02:27:35.833Z,99.99
2022-10-17T02:28:35.917Z,99.99
2022-10-17T02:29:35.830Z,99.99
2022-10-17T02:30:35.839Z,99.99
2022-10-17T02:31:35.836Z,99.99
2022-10-17T02:32:35.827Z,99.99
2022-10-17T02:33:35.832Z,99.99
2022-10-17T02:34:35.832Z,99.99
2022-10-17T02:35:35.845Z,99.99
2022-10-17T02:36:35.840Z,99.99
2022-10-17T02:37:35.832Z,99.99
2022-10-17T02:38:35.836Z,99.99
2022-10-17T02:39:35.827Z,99.99
2022-10-17T02:40:35.853Z,99.99
2022-10-17T02:41:35.829Z,99.99
2022-10-17T02:42:35.830Z,99.99
2022-10-17T02:43:35.832Z,99.99
2022-10-17T02:44:35.826Z,99.99
2022-10-17T02:45:35.861Z,99.99
2022-10-17T02:46:35.823Z,99.99
2022-10-17T02:47:35.831Z,99.99
2022-10-17T02:48:35.826Z,99.99
2022-10-17T02:49:35.824Z,99.99
2022-10-17T02:50:35.825Z,99.99
2022-10-17T02:51:35.829Z,99.99
2022-10-17T02:52:35.826Z,99.99
2022-10-17T02:53:35.828Z,99.99
2022-10-17T02:54:35.835Z,99.99
2022-10-17T02:55:35.834Z,99.99
2022-10-17T02:56:35.857Z,99.99
2022-10-17T02:57:35.839Z,99.99
2022-10-17T02:58:35.828Z,99.99
2022-10-17T02:59:35.830Z,99.99
2022-10-17T03:00:35.822Z,99.99
2022-10-17T03:01:35.850Z,99.99
2022-10-17T03:02:35.824Z,99.99
2022-10-17T03:03:35.822Z,99.99
2022-10-17T03:04:35.820Z,99.99
2022-10-17T03:05:35.826Z,99.99
2022-10-17T03:06:35.819Z,99.99
2022-10-17T03:07:35.822Z,99.99
2022-10-17T03:08:35.820Z,99.99
2022-10-17T03:09:35.822Z,99.99
2022-10-17T03:10:35.818Z,99.99
2022-10-17T03:11:35.820Z,99.99
2022-10-17T03:12:35.842Z,99.99
2022-10-17T03:13:39.000Z,99.99
2022-10-17T03:14:35.817Z,99.99
2022-10-17T03:15:35.821Z,99.99
2022-10-17T03:16:35.827Z,99.99
2022-10-17T03:17:35.895Z,99.99
2022-10-17T03:18:35.814Z,99.99
2022-10-17T03:19:35.814Z,99.99
2022-10-17T03:20:35.816Z,99.99
2022-10-17T03:21:35.818Z,99.99
2022-10-17T03:22:35.822Z,99.99
2022-10-17T03:23:35.814Z,99.99
2022-10-17T03:24:35.812Z,99.99
2022-10-17T03:25:35.816Z,99.99
2022-10-17T03:26:36.175Z,99.99
2022-10-17T03:27:37.397Z,99.99
2022-10-17T03:29:35.933Z,99.99
2022-10-17T03:30:35.843Z,99.99
2022-10-17T03:31:35.812Z,99.99
2022-10-17T03:32:35.874Z,99.99
2022-10-17T03:33:35.826Z,99.99
2022-10-17T03:34:35.820Z,99.99
2022-10-17T03:35:35.814Z,99.99
2022-10-17T03:36:35.808Z,99.99
2022-10-17T03:37:35.808Z,99.99
2022-10-17T03:38:35.815Z,99.99
2022-10-17T03:39:35.807Z,99.99
2022-10-17T03:40:35.815Z,99.99
2022-10-17T03:41:35.812Z,99.99
2022-10-17T03:42:35.806Z,99.99
2022-10-17T03:43:35.812Z,99.99
2022-10-17T03:44:35.812Z,99.99
2022-10-17T03:45:35.832Z,99.99
2022-10-17T03:46:35.808Z,99.99
2022-10-17T03:47:35.815Z,99.99
2022-10-17T03:48:35.805Z,99.99
2022-10-17T03:49:35.803Z,99.99
2022-10-17T03:50:35.808Z,99.99
2022-10-17T03:51:35.805Z,99.99
2022-10-17T03:52:35.823Z,99.99
2022-10-17T03:53:35.809Z,99.99
2022-10-17T03:54:35.804Z,99.99
2022-10-17T03:55:35.807Z,99.99
2022-10-17T03:56:35.805Z,99.99
2022-10-17T03:57:35.808Z,99.99
2022-10-17T03:58:35.805Z,99.99
2022-10-17T03:59:35.804Z,99.99
2022-10-17T04:00:35.803Z,99.99
2022-10-17T04:01:35.929Z,99.99
2022-10-17T04:02:35.809Z,99.99
2022-10-17T04:03:35.805Z,99.99
2022-10-17T04:04:35.807Z,99.99
2022-10-17T04:05:35.803Z,99.99
2022-10-17T04:06:35.805Z,99.99
2022-10-17T04:07:35.801Z,99.99
2022-10-17T04:08:35.805Z,99.99
2022-10-17T04:09:35.799Z,99.99
2022-10-17T04:10:35.801Z,99.99
2022-10-17T04:11:35.799Z,99.99
2022-10-17T04:12:35.802Z,99.99
2022-10-17T04:13:35.801Z,99.99
2022-10-17T04:14:35.807Z,99.99
2022-10-17T04:15:35.804Z,99.99
2022-10-17T04:16:35.800Z,99.99
2022-10-17T04:17:38.092Z,99.99
2022-10-17T04:18:35.797Z,99.99
2022-10-17T04:19:35.804Z,99.99
2022-10-17T04:20:35.804Z,99.99
2022-10-17T04:21:35.796Z,99.99
2022-10-17T04:22:35.799Z,99.99
2022-10-17T04:23:35.799Z,99.99
2022-10-17T04:24:35.799Z,99.99
2022-10-17T04:25:36.784Z,99.99
2022-10-17T04:26:35.797Z,99.99
2022-10-17T04:27:35.795Z,99.99
2022-10-17T04:28:36.003Z,99.99
2022-10-17T04:29:35.801Z,99.99
2022-10-17T04:30:35.794Z,99.99
2022-10-17T04:31:35.795Z,99.99
2022-10-17T04:32:35.794Z,99.99
2022-10-17T04:33:35.818Z,99.99
2022-10-17T04:34:35.792Z,99.99
2022-10-17T04:35:35.795Z,99.99
2022-10-17T04:36:35.792Z,99.99
2022-10-17T04:37:35.792Z,99.99
2022-10-17T04:38:35.794Z,99.99
2022-10-17T04:39:35.790Z,99.99
2022-10-17T04:40:35.790Z,99.99
2022-10-17T04:41:35.790Z,99.99
2022-10-17T04:42:35.791Z,99.99
2022-10-17T04:43:35.792Z,99.99
2022-10-17T04:44:35.793Z,99.99
2022-10-17T04:45:35.787Z,99.99
2022-10-17T04:46:35.792Z,99.99
2022-10-17T04:47:35.792Z,99.99
2022-10-17T04:48:35.791Z,99.99
2022-10-17T04:49:35.886Z,99.99
2022-10-17T04:50:35.792Z,99.99
2022-10-17T04:51:35.787Z,99.99
2022-10-17T04:52:35.791Z,99.99
2022-10-17T04:53:35.788Z,99.99
2022-10-17T04:54:35.787Z,99.99
2022-10-17T04:55:35.786Z,99.99
2022-10-17T04:56:35.790Z,99.99
2022-10-17T04:57:35.787Z,99.99
2022-10-17T04:58:35.786Z,99.99
2022-10-17T04:59:35.787Z,99.99
2022-10-17T05:00:35.850Z,99.99
2022-10-17T05:01:35.786Z,99.99
2022-10-17T05:02:35.783Z,99.99
2022-10-17T05:03:35.787Z,99.99
2022-10-17T05:04:35.786Z,99.99
2022-10-17T05:05:35.819Z,99.99
2022-10-17T05:06:35.780Z,99.99
2022-10-17T05:07:35.790Z,99.99
2022-10-17T05:08:35.781Z,99.99
2022-10-17T05:09:35.782Z,99.99
2022-10-17T05:10:35.784Z,99.99
2022-10-17T05:11:35.784Z,99.99
2022-10-17T05:12:35.795Z,99.99
2022-10-17T05:13:35.781Z,99.99
2022-10-17T05:14:35.780Z,99.99
2022-10-17T05:15:35.784Z,99.99
2022-10-17T05:16:35.783Z,99.99
2022-10-17T05:17:35.782Z,99.99
2022-10-17T05:18:35.781Z,99.99
2022-10-17T05:19:35.777Z,99.99
2022-10-17T05:20:35.783Z,99.99
2022-10-17T05:21:35.804Z,99.99
2022-10-17T05:22:38.267Z,99.99
2022-10-17T05:23:35.780Z,99.99
2022-10-17T05:24:35.778Z,99.99
2022-10-17T05:25:35.781Z,99.99
2022-10-17T05:26:35.777Z,99.99
2022-10-17T05:27:35.782Z,99.99
2022-10-17T05:28:35.821Z,99.99
2022-10-17T05:29:35.776Z,99.99
2022-10-17T05:30:36.800Z,99.99
2022-10-17T05:31:35.773Z,99.99
2022-10-17T05:32:35.780Z,99.99
2022-10-17T05:33:35.776Z,99.99
2022-10-17T05:34:35.775Z,99.99
2022-10-17T05:35:35.786Z,99.99
2022-10-17T05:36:35.775Z,99.99
2022-10-17T05:37:35.893Z,99.99
2022-10-17T05:38:35.772Z,99.99
2022-10-17T05:39:35.775Z,99.99
2022-10-17T05:40:35.776Z,99.99
2022-10-17T05:41:35.770Z,99.99
2022-10-17T05:42:35.827Z,99.99
2022-10-17T05:43:35.774Z,99.99
2022-10-17T05:44:35.771Z,99.99
2022-10-17T05:45:35.775Z,99.99
2022-10-17T05:46:35.773Z,99.99
2022-10-17T05:47:35.771Z,99.99
2022-10-17T05:48:35.768Z,99.99
2022-10-17T05:49:44.963Z,99.99
2022-10-17T05:50:35.768Z,99.99
2022-10-17T05:51:35.819Z,99.99
2022-10-17T05:52:35.767Z,99.99
2022-10-17T05:53:35.880Z,99.99
2022-10-17T05:54:35.776Z,99.99
2022-10-17T05:55:35.771Z,99.99
2022-10-17T05:56:35.768Z,99.99
2022-10-17T05:57:35.773Z,99.99
2022-10-17T05:58:49.927Z,99.99
2022-10-17T05:59:35.771Z,99.99
2022-10-17T06:00:35.875Z,99.99
2022-10-17T06:01:35.810Z,99.99
2022-10-17T06:02:35.767Z,99.99
2022-10-17T06:03:35.776Z,99.99
2022-10-17T06:04:35.769Z,99.99
2022-10-17T06:05:35.769Z,99.99
2022-10-17T06:06:35.760Z,99.99
2022-10-17T06:07:35.767Z,99.99
2022-10-17T06:08:35.767Z,99.99
2022-10-17T06:09:35.836Z,99.99
2022-10-17T06:10:36.092Z,99.99
2022-10-17T06:11:35.776Z,99.99
2022-10-17T06:12:35.763Z,99.99
2022-10-17T06:13:35.763Z,99.99
2022-10-17T06:14:35.767Z,99.99
2022-10-17T06:15:35.766Z,99.99
2022-10-17T06:16:35.768Z,99.99
2022-10-17T06:17:35.763Z,99.99
2022-10-17T06:18:35.820Z,99.99
2022-10-17T06:19:35.762Z,99.99
2022-10-17T06:20:35.757Z,99.99
2022-10-17T06:21:35.772Z,99.99
2022-10-17T06:22:35.759Z,99.99
2022-10-17T06:23:35.765Z,99.99
2022-10-17T06:24:35.762Z,99.99
2022-10-17T06:25:35.788Z,99.99
2022-10-17T06:26:35.759Z,99.99
2022-10-17T06:27:35.759Z,99.99
2022-10-17T06:28:35.898Z,99.99
2022-10-17T06:29:35.759Z,99.99
2022-10-17T06:30:35.755Z,99.99
2022-10-17T06:31:35.758Z,99.99
2022-10-17T06:32:35.758Z,99.99
2022-10-17T06:33:35.757Z,99.99
2022-10-17T06:34:35.756Z,99.99
2022-10-17T06:35:35.761Z,99.99
2022-10-17T06:36:35.757Z,99.99
2022-10-17T06:37:36.939Z,99.99
2022-10-17T06:38:35.755Z,99.99
2022-10-17T06:39:35.757Z,99.99
2022-10-17T06:40:35.756Z,99.99
2022-10-17T06:41:35.776Z,99.99
2022-10-17T06:42:35.758Z,99.99
2022-10-17T06:43:35.753Z,99.99
2022-10-17T06:44:35.754Z,99.99
2022-10-17T06:45:35.759Z,99.99
2022-10-17T06:46:35.754Z,99.99
2022-10-17T06:47:35.757Z,99.99
2022-10-17T06:48:35.752Z,99.99
2022-10-17T06:49:35.755Z,99.99
2022-10-17T06:50:35.756Z,99.99
2022-10-17T06:51:35.763Z,99.99
2022-10-17T06:52:35.753Z,99.99
2022-10-17T06:53:35.756Z,99.99
2022-10-17T06:54:35.753Z,99.99
2022-10-17T06:55:35.759Z,99.99
2022-10-17T06:56:35.757Z,99.99
2022-10-17T06:57:35.787Z,99.99
2022-10-17T06:58:35.757Z,99.99
2022-10-17T06:59:35.758Z,99.99
2022-10-17T07:00:35.844Z,99.99
2022-10-17T07:01:35.753Z,99.99
2022-10-17T07:02:35.760Z,99.99
2022-10-17T07:03:35.756Z,99.99
2022-10-17T07:04:35.754Z,99.99
2022-10-17T07:05:35.755Z,99.99
2022-10-17T07:06:35.750Z,99.99
2022-10-17T07:07:38.859Z,99.99
2022-10-17T07:08:35.750Z,99.99
2022-10-17T07:09:35.752Z,99.99
2022-10-17T07:10:35.755Z,99.99
2022-10-17T07:11:35.771Z,99.99
2022-10-17T07:12:35.753Z,99.99
2022-10-17T07:13:39.191Z,99.99
2022-10-17T07:14:35.753Z,99.99
2022-10-17T07:15:35.749Z,99.99
2022-10-17T07:16:35.758Z,99.99
2022-10-17T07:17:35.749Z,99.99
2022-10-17T07:18:35.751Z,99.99
2022-10-17T07:19:35.751Z,99.99
2022-10-17T07:20:35.753Z,99.99
2022-10-17T07:21:38.960Z,99.99
2022-10-17T07:22:35.751Z,99.99
2022-10-17T07:23:35.754Z,99.99
2022-10-17T07:24:35.752Z,99.99
2022-10-17T07:25:39.268Z,99.99
2022-10-17T07:26:35.757Z,99.99
2022-10-17T07:27:35.756Z,99.99
2022-10-17T07:28:35.799Z,99.99
2022-10-17T07:29:35.784Z,99.99
2022-10-17T07:30:35.752Z,99.99
2022-10-17T07:31:35.753Z,99.99
2022-10-17T07:32:35.753Z,99.99
2022-10-17T07:33:35.822Z,99.99
2022-10-17T07:34:35.753Z,99.99
2022-10-17T07:35:35.762Z,99.99
2022-10-17T07:36:35.755Z,99.99
2022-10-17T07:37:35.771Z,99.99
2022-10-17T07:38:35.755Z,99.99
2022-10-17T07:39:35.768Z,99.99
2022-10-17T07:40:35.752Z,99.99
2022-10-17T07:41:35.755Z,99.99
2022-10-17T07:42:35.817Z,99.99
2022-10-17T07:43:35.753Z,99.99
2022-10-17T07:44:35.755Z,99.99
2022-10-17T07:45:35.774Z,99.99
2022-10-17T07:46:35.755Z,99.99
2022-10-17T07:47:35.771Z,99.99
2022-10-17T07:48:35.754Z,99.99
2022-10-17T07:49:35.754Z,99.99
2022-10-17T07:50:35.752Z,99.99
2022-10-17T07:51:35.857Z,99.99
2022-10-17T07:52:35.766Z,99.99
2022-10-17T07:53:35.757Z,99.99
2022-10-17T07:54:35.761Z,99.99
2022-10-17T07:55:35.756Z,99.99
2022-10-17T07:56:35.757Z,99.99
2022-10-17T07:57:35.759Z,99.99
2022-10-17T07:58:35.763Z,99.99
2022-10-17T07:59:35.759Z,99.99
2022-10-17T08:00:35.793Z,99.99
2022-10-17T08:01:35.784Z,99.99
2022-10-17T08:02:35.756Z,99.99
2022-10-17T08:03:35.758Z,99.99
2022-10-17T08:04:35.759Z,99.99
2022-10-17T08:05:35.758Z,99.99
2022-10-17T08:06:35.763Z,99.99
2022-10-17T08:07:35.767Z,99.99
2022-10-17T08:08:35.763Z,99.99
2022-10-17T08:09:35.763Z,99.99
2022-10-17T08:10:35.760Z,99.99
2022-10-17T08:11:35.765Z,99.99
2022-10-17T08:12:35.765Z,99.99
2022-10-17T08:13:35.763Z,99.99
2022-10-17T08:14:35.764Z,99.99
2022-10-17T08:15:35.765Z,99.99
2022-10-17T08:16:35.767Z,99.99
2022-10-17T08:17:35.780Z,99.99
2022-10-17T08:18:35.763Z,99.99
2022-10-17T08:19:35.769Z,99.99
2022-10-17T08:20:35.771Z,99.99
2022-10-17T08:21:35.775Z,99.99
2022-10-17T08:22:35.774Z,99.99
2022-10-17T08:23:35.773Z,99.99
2022-10-17T08:24:35.773Z,99.55
2022-10-17T08:25:35.773Z,99.26
2022-10-17T08:26:39.270Z,99.01
2022-10-17T08:27:35.775Z,98.21
2022-10-17T08:28:35.878Z,96.73
2022-10-17T08:29:35.783Z,97.38
2022-10-17T08:30:35.777Z,95.94
2022-10-17T08:31:35.783Z,94.70
2022-10-17T08:32:35.780Z,94.20
2022-10-17T08:33:35.802Z,94.31
2022-10-17T08:34:35.787Z,92.82
2022-10-17T08:35:35.783Z,92.62
2022-10-17T08:36:35.785Z,92.93
2022-10-17T08:37:35.791Z,91.63
2022-10-17T08:38:36.814Z,92.82
2022-10-17T08:39:35.789Z,92.96
2022-10-17T08:40:35.795Z,93.26
2022-10-17T08:41:35.794Z,92.96
2022-10-17T08:42:35.802Z,93.16
2022-10-17T08:43:35.807Z,93.21
2022-10-17T08:44:36.142Z,94.35
2022-10-17T08:45:35.805Z,94.70
2022-10-17T08:46:35.969Z,93.90
2022-10-17T08:47:35.810Z,93.76
2022-10-17T08:48:35.813Z,92.82
2022-10-17T08:49:35.840Z,91.88
2022-10-17T08:50:35.819Z,91.35
2022-10-17T08:51:35.820Z,91.78
2022-10-17T08:52:35.821Z,91.44
2022-10-17T08:53:35.821Z,91.40
2022-10-17T08:54:35.826Z,91.95
2022-10-17T08:55:37.819Z,89.83
2022-10-17T08:56:47.866Z,88.95
2022-10-17T08:57:35.836Z,88.15
2022-10-17T08:58:35.846Z,87.77
2022-10-17T08:59:35.849Z,87.14
2022-10-17T09:00:35.848Z,86.11
2022-10-17T09:01:35.845Z,86.25
2022-10-17T09:02:35.925Z,86.31
2022-10-17T09:03:35.857Z,86.07
2022-10-17T09:04:35.882Z,84.90
2022-10-17T09:05:35.895Z,83.64
2022-10-17T09:06:35.869Z,82.45
2022-10-17T09:07:35.877Z,82.95
2022-10-17T09:08:35.882Z,82.63
2022-10-17T09:09:35.880Z,83.26
2022-10-17T09:10:35.890Z,84.21
2022-10-17T09:11:35.895Z,83.28
2022-10-17T09:12:35.900Z,83.87
2022-10-17T09:14:35.916Z,82.79
2022-10-17T09:15:35.918Z,82.73
2022-10-17T09:16:35.926Z,83.03
2022-10-17T09:17:35.940Z,84.00
2022-10-17T09:18:35.939Z,83.60
2022-10-17T09:19:35.949Z,83.95
2022-10-17T09:20:35.953Z,83.86
2022-10-17T09:21:35.982Z,83.86
2022-10-17T09:22:35.971Z,82.73
2022-10-17T09:23:37.975Z,83.33
2022-10-17T09:24:35.981Z,82.59
2022-10-17T09:25:35.987Z,81.82
2022-10-17T09:26:35.999Z,81.47
2022-10-17T09:27:36.005Z,81.04
2022-10-17T09:28:36.078Z,81.13
2022-10-17T09:29:40.179Z,81.23
2022-10-17T09:30:47.503Z,80.99
2022-10-17T09:31:36.042Z,80.41
2022-10-17T09:32:36.056Z,79.91
2022-10-17T09:33:53.449Z,80.86
2022-10-17T09:34:36.076Z,79.83
2022-10-17T09:35:36.078Z,79.17
2022-10-17T09:36:36.090Z,78.22
2022-10-17T09:37:36.125Z,79.25
2022-10-17T09:38:36.112Z,79.17
2022-10-17T09:39:36.118Z,78.54
2022-10-17T09:40:36.133Z,77.13
2022-10-17T09:41:51.548Z,77.09
2022-10-17T09:42:36.149Z,75.98
2022-10-17T09:43:36.163Z,75.55
2022-10-17T09:44:36.171Z,74.92
2022-10-17T09:45:36.179Z,75.92
2022-10-17T09:46:36.192Z,76.15
2022-10-17T09:47:36.201Z,76.64
2022-10-17T09:48:36.217Z,76.50
2022-10-17T09:49:36.224Z,76.07
2022-10-17T09:50:36.238Z,75.88
2022-10-17T09:51:36.248Z,75.05
2022-10-17T09:52:36.288Z,75.71
2022-10-17T09:53:36.294Z,74.59
2022-10-17T09:54:36.283Z,74.92
2022-10-17T09:55:36.293Z,74.80
2022-10-17T09:56:36.308Z,75.72
2022-10-17T09:57:36.319Z,76.31
2022-10-17T09:58:36.340Z,76.27
2022-10-17T09:59:36.343Z,74.76
2022-10-17T10:00:36.402Z,75.02
2022-10-17T10:01:36.373Z,74.07
2022-10-17T10:02:36.390Z,73.74
2022-10-17T10:03:36.397Z,73.66
2022-10-17T10:04:59.726Z,72.53
2022-10-17T10:05:36.417Z,71.45
2022-10-17T10:06:36.434Z,72.33
2022-10-17T10:07:36.475Z,71.68
2022-10-17T10:08:36.459Z,71.48
2022-10-17T10:09:38.158Z,71.68
2022-10-17T10:10:36.485Z,71.41
2022-10-17T10:11:36.497Z,69.98
2022-10-17T10:12:36.515Z,69.17
2022-10-17T10:13:36.532Z,69.89
2022-10-17T10:14:36.543Z,69.85
2022-10-17T10:15:36.550Z,68.68
2022-10-17T10:16:36.564Z,69.43
2022-10-17T10:17:36.579Z,69.29
2022-10-17T10:18:36.622Z,68.29
2022-10-17T10:19:36.610Z,67.67
2022-10-17T10:20:36.624Z,67.35
2022-10-17T10:21:37.396Z,67.11
2022-10-17T10:22:36.659Z,66.93
2022-10-17T10:23:36.662Z,66.96
2022-10-17T10:24:36.676Z,68.35
2022-10-17T10:25:36.713Z,66.30
2022-10-17T10:26:36.707Z,65.79
2022-10-17T10:27:36.721Z,65.56
2022-10-17T10:28:36.832Z,67.25
2022-10-17T10:29:36.747Z,68.22
2022-10-17T10:30:39.187Z,68.13
2022-10-17T10:31:36.777Z,68.23
2022-10-17T10:32:36.800Z,68.49
2022-10-17T10:33:41.372Z,70.90
2022-10-17T10:34:36.834Z,70.87
2022-10-17T10:35:36.843Z,71.72
2022-10-17T10:37:36.870Z,74.21
2022-10-17T10:38:36.888Z,75.03
2022-10-17T10:39:36.901Z,75.95
2022-10-17T10:40:36.918Z,76.40
2022-10-17T10:41:36.959Z,75.82
2022-10-17T10:42:36.959Z,74.90
2022-10-17T10:43:36.963Z,75.61
2022-10-17T10:44:36.978Z,73.36
2022-10-17T10:45:52.293Z,74.16
2022-10-17T10:46:37.010Z,75.31
2022-10-17T10:47:37.080Z,73.57
2022-10-17T10:48:37.098Z,71.15
2022-10-17T10:49:37.049Z,70.18
2022-10-17T10:50:39.637Z,69.98
2022-10-17T10:51:37.087Z,69.20
2022-10-17T10:52:37.099Z,67.38
2022-10-17T10:53:37.125Z,66.79
2022-10-17T10:54:37.131Z,65.20
2022-10-17T10:55:37.483Z,66.92
2022-10-17T10:56:37.173Z,65.14
2022-10-17T10:57:37.229Z,65.69
2022-10-17T10:58:40.286Z,63.78
2022-10-17T10:59:37.209Z,62.91
2022-10-17T11:00:37.302Z,63.14
2022-10-17T11:01:37.238Z,62.72
2022-10-17T11:02:37.252Z,62.72
2022-10-17T11:03:37.327Z,62.95
2022-10-17T11:04:37.290Z,62.92
2022-10-17T11:05:37.308Z,61.85
2022-10-17T11:06:37.326Z,62.65
2022-10-17T11:07:37.347Z,64.04
2022-10-17T11:08:37.364Z,63.59
2022-10-17T11:09:37.374Z,61.98
2022-10-17T11:10:37.390Z,61.11
2022-10-17T11:11:37.406Z,63.36
2022-10-17T11:12:37.520Z,62.49
2022-10-17T11:13:37.467Z,64.37
2022-10-17T11:14:37.468Z,62.46
2022-10-17T11:15:37.480Z,62.55
2022-10-17T11:16:37.504Z,62.04
2022-10-17T11:17:37.518Z,63.33
2022-10-17T11:18:37.534Z,62.75
2022-10-17T11:19:37.554Z,62.59
2022-10-17T11:20:37.580Z,62.36
2022-10-17T11:21:37.648Z,62.32
2022-10-17T11:22:37.603Z,63.39
2022-10-17T11:23:37.627Z,65.27
2022-10-17T11:24:37.654Z,63.23
2022-10-17T11:25:37.678Z,63.59
2022-10-17T11:26:37.687Z,64.40
2022-10-17T11:27:37.704Z,63.42
2022-10-17T11:28:37.800Z,64.11
2022-10-17T11:29:37.761Z,63.59
2022-10-17T11:30:37.778Z,63.42
2022-10-17T11:31:37.783Z,63.98
2022-10-17T11:32:37.802Z,62.52
2022-10-17T11:33:37.818Z,63.26
2022-10-17T11:34:37.834Z,62.32
2022-10-17T11:35:37.854Z,63.10
2022-10-17T11:36:37.883Z,63.68
2022-10-17T11:37:39.509Z,63.39
2022-10-17T11:38:37.919Z,64.43
2022-10-17T11:39:37.956Z,63.43
2022-10-17T11:40:37.984Z,63.36
2022-10-17T11:41:37.964Z,63.32
2022-10-17T11:42:37.991Z,64.65
2022-10-17T11:43:38.009Z,63.87
2022-10-17T11:44:38.027Z,64.59
2022-10-17T11:45:38.067Z,65.63
2022-10-17T11:46:38.064Z,65.30
2022-10-17T11:47:38.084Z,65.43
2022-10-17T11:48:38.094Z,65.20
2022-10-17T11:49:40.689Z,64.81
2022-10-17T11:52:55.284Z,65.43
2022-10-17T11:53:38.185Z,64.88
2022-10-17T11:54:38.202Z,65.53
2022-10-17T11:55:38.218Z,64.72
2022-10-17T11:56:42.685Z,64.62
2022-10-17T11:57:38.251Z,65.46
2022-10-17T11:58:38.269Z,65.66
2022-10-17T11:59:38.282Z,66.21
2022-10-17T12:00:40.775Z,66.93
2022-10-17T12:01:38.333Z,67.41
2022-10-17T12:02:39.154Z,67.41
2022-10-17T12:03:38.343Z,67.18
2022-10-17T12:04:38.421Z,67.02
2022-10-17T12:05:38.377Z,67.44
2022-10-17T12:06:38.393Z,68.59
2022-10-17T12:07:38.444Z,68.10
2022-10-17T12:08:38.428Z,68.13
2022-10-17T12:09:38.436Z,69.14
2022-10-17T12:10:38.457Z,69.07
2022-10-17T12:11:38.465Z,69.24
2022-10-17T12:12:38.477Z,68.75
2022-10-17T12:13:38.497Z,68.88
2022-10-17T12:14:38.508Z,68.75
2022-10-17T12:15:38.520Z,69.43
2022-10-17T12:16:38.545Z,70.25
2022-10-17T12:17:38.573Z,71.36
2022-10-17T12:18:38.555Z,71.36
2022-10-17T12:19:38.573Z,72.53
2022-10-17T12:20:38.583Z,71.40
2022-10-17T12:21:41.501Z,72.41
2022-10-17T12:22:38.609Z,71.86
2022-10-17T12:23:38.622Z,73.62
2022-10-17T12:24:38.637Z,73.27
2022-10-17T12:25:38.672Z,73.66
2022-10-17T12:26:38.659Z,75.52
2022-10-17T12:27:38.674Z,74.58
2022-10-17T12:28:39.447Z,75.07
2022-10-17T12:29:38.696Z,74.62
2022-10-17T12:30:38.707Z,75.40
2022-10-17T12:31:38.715Z,75.70
2022-10-17T12:33:00.414Z,75.93
2022-10-17T12:33:38.760Z,75.54
2022-10-17T12:34:38.822Z,76.48
2022-10-17T12:35:38.784Z,76.03
2022-10-17T12:36:38.772Z,76.03
2022-10-17T12:37:38.787Z,76.03
2022-10-17T12:38:38.805Z,76.03
2022-10-17T12:39:38.803Z,76.62
2022-10-17T12:40:38.819Z,76.16
2022-10-17T12:41:38.882Z,77.11
2022-10-17T12:42:38.838Z,77.64
2022-10-17T12:43:41.585Z,76.85
2022-10-17T12:44:38.858Z,77.14
2022-10-17T12:45:38.873Z,77.04
2022-10-17T12:46:38.881Z,77.11
2022-10-17T12:47:38.883Z,77.54
2022-10-17T12:48:38.900Z,77.14
2022-10-17T12:49:38.928Z,76.85
2022-10-17T12:50:38.922Z,77.58
2022-10-17T12:51:38.929Z,77.18
2022-10-17T12:52:39.043Z,77.18
2022-10-17T12:53:38.941Z,77.97
2022-10-17T12:54:47.275Z,77.38
2022-10-17T12:55:38.964Z,76.98
2022-10-17T12:56:38.968Z,76.98
2022-10-17T12:57:38.975Z,77.42
2022-10-17T12:58:39.198Z,78.05
2022-10-17T12:59:38.995Z,78.83